METAR AND TAF INFORMATION
METAR FOR HTKJ
ADDS - METARS form results

(0955 UTC 24 May 2019)
Data provider http://aviationweather.gov/metar/data/
 
METAR text: HTKJ 240900Z 00000KT 9999 BKN023 BKN090 21/18 Q1020 NOSIG
Conditions at: HTKJ (KILIMANJARO AIRP, TZ) observed 0900 UTC 24 May 2019
Temperature: 21.0°C (70°F)
Dewpoint: 18.0°C (64°F) [RH = 83%]
Pressure (altimeter): 30.12 inches Hg (1020.0 mb)
Winds: calm
Visibility: 6 or more miles (10+ km)
Ceiling: 2300 feet AGL
Clouds: broken clouds at 2300 feet AGL
broken clouds at 9000 feet AGL
Weather: no significant weather observed at this time

 AIRPORT MAP

 RUNWAY INFORMATION
Runway 09 Runway length 11834 ft Runway width 148 ft
Runway elevation 2932 ft Runway displaced threshold 0 ft Runway heading 87
Runway 27 Runway length 11834 ft Runway width 148 ft
Runway elevation 2902 ft Runway displaced threshold 0 ft Runway heading 267

 AIRPORT FREQUENCIES
Type APP Name APP Frequency 120.1 MHZ
Type ATIS Name ATIS Frequency 126.6 MHZ
Type TWR Name TWR Frequency 120.1 MHZ

 AIRPORT NEAR NAVIGATION AIDS
Type NDB Name Kilimanjaro Frequency 293 KHZ
Type NDB Name Kilimanjaro Frequency 283 KHZ
Type NDB Name Kilimanjaro Frequency 298 KHZ
Type VOR-DME Name Kilimanjaro Frequency 115300 KHZ



Powered by Virtual Airlines Manager [v2.6.2]